Terminal Aerodrome Forecast
Issued by NWS

Home | Current Version | Previous Version | Text Only | Print | Product List | Glossary On
Versions: 1 2 3 4 5 6 7 8 9 10 11 12 13 14 15 16 17 18
000
FTUS46 KSEW 280022 AAA
TAFCLM
TAF AMD
KCLM 280022Z 2800/2824 30012G22KT P6SM BKN050 BKN100
     FM280400 27010KT P6SM BKN035
     FM281200 VRB03KT 6SM -RA BKN025 OVC050
     FM282000 33006KT P6SM VCSH SCT030 BKN050=

USA.gov is the U.S. government's official web portal to all federal, state and local government web resources and services.